createdAt,value
2022-10-03T00:01:15.603Z,1.40
2022-10-03T00:03:54.335Z,1.57
2022-10-03T00:06:33.385Z,1.80
2022-10-03T00:09:22.765Z,1.47
2022-10-03T00:12:04.652Z,2.03
2022-10-03T00:14:43.078Z,1.83
2022-10-03T00:17:19.668Z,1.50
2022-10-03T00:19:59.985Z,1.30
2022-10-03T00:22:38.323Z,1.50
2022-10-03T00:25:31.325Z,1.67
2022-10-03T00:28:14.953Z,2.13
2022-10-03T00:30:54.206Z,1.63
2022-10-03T00:33:34.781Z,1.60
2022-10-03T00:36:10.566Z,1.83
2022-10-03T00:39:10.965Z,1.93
2022-10-03T00:42:04.875Z,1.83
2022-10-03T00:45:10.504Z,1.30
2022-10-03T00:48:08.198Z,1.50
2022-10-03T00:50:55.136Z,2.47
2022-10-03T00:53:38.867Z,1.60
2022-10-03T00:56:34.192Z,1.70
2022-10-03T00:59:19.250Z,1.67
2022-10-03T01:01:50.327Z,1.53
2022-10-03T01:04:40.674Z,1.77
2022-10-03T01:07:26.119Z,2.03
2022-10-03T01:10:12.233Z,1.63
2022-10-03T01:13:13.958Z,1.63
2022-10-03T01:15:53.037Z,1.50
2022-10-03T01:18:32.799Z,1.37
2022-10-03T01:21:12.353Z,1.60
2022-10-03T01:24:22.613Z,1.63
2022-10-03T01:26:57.135Z,1.53
2022-10-03T01:30:08.464Z,1.63
2022-10-03T01:32:44.774Z,1.53
2022-10-03T01:35:24.189Z,1.67
2022-10-03T01:38:03.062Z,1.53
2022-10-03T01:40:38.128Z,2.33
2022-10-03T01:43:15.528Z,1.30
2022-10-03T01:45:56.984Z,1.30
2022-10-03T01:48:34.990Z,1.40
2022-10-03T01:51:11.734Z,1.67
2022-10-03T01:53:50.163Z,1.57
2022-10-03T01:56:28.366Z,1.37
2022-10-03T01:59:06.800Z,1.87
2022-10-03T02:01:47.610Z,1.27
2022-10-03T02:04:29.750Z,1.63
2022-10-03T02:07:08.859Z,1.70
2022-10-03T02:09:49.327Z,1.07
2022-10-03T02:12:28.961Z,1.57
2022-10-03T02:15:07.946Z,1.60
2022-10-03T02:17:54.314Z,1.87
2022-10-03T02:20:35.504Z,1.70
2022-10-03T02:23:22.907Z,2.00
2022-10-03T02:26:04.400Z,1.60
2022-10-03T02:29:11.669Z,1.80
2022-10-03T02:32:11.183Z,1.83
2022-10-03T02:35:11.145Z,1.47
2022-10-03T02:38:08.739Z,1.37
2022-10-03T02:40:58.526Z,0.97
2022-10-03T02:43:54.324Z,1.23
2022-10-03T02:46:59.215Z,1.53
2022-10-03T02:50:10.599Z,1.70
2022-10-03T02:53:20.893Z,2.10
2022-10-03T02:56:14.693Z,1.50
2022-10-03T02:59:10.828Z,1.13
2022-10-03T03:02:17.540Z,1.50
2022-10-03T03:05:19.223Z,1.10
2022-10-03T03:08:24.326Z,1.70
2022-10-03T03:11:38.253Z,1.53
2022-10-03T03:14:45.486Z,1.00
2022-10-03T03:17:30.898Z,1.50
2022-10-03T03:20:23.722Z,1.43
2022-10-03T03:23:10.026Z,1.77
2022-10-03T03:26:25.142Z,1.43
2022-10-03T03:29:05.253Z,1.27
2022-10-03T03:31:45.907Z,1.83
2022-10-03T03:34:23.943Z,0.97
2022-10-03T03:36:59.369Z,1.37
2022-10-03T03:39:58.334Z,1.13
2022-10-03T03:42:55.397Z,1.30
2022-10-03T03:45:46.465Z,0.97
2022-10-03T03:48:41.084Z,0.97
2022-10-03T03:51:23.489Z,1.13
2022-10-03T03:54:22.296Z,1.23
2022-10-03T03:57:11.914Z,1.30
2022-10-03T03:59:59.105Z,1.40
2022-10-03T04:02:52.870Z,1.70
2022-10-03T04:05:34.925Z,1.23
2022-10-03T04:08:25.930Z,1.57
2022-10-03T04:11:11.856Z,1.27
2022-10-03T04:14:19.727Z,1.10
2022-10-03T04:17:29.879Z,1.80
2022-10-03T04:20:14.288Z,0.80
2022-10-03T04:23:01.119Z,1.70
2022-10-03T04:25:52.792Z,0.83
2022-10-03T04:28:43.153Z,0.93
2022-10-03T04:31:27.680Z,1.60
2022-10-03T04:34:13.641Z,1.40
2022-10-03T04:37:16.425Z,1.57
2022-10-03T04:39:54.700Z,1.43
2022-10-03T04:42:41.046Z,1.60
2022-10-03T04:45:28.712Z,1.57
2022-10-03T04:48:07.180Z,1.17
2022-10-03T04:50:45.997Z,1.53
2022-10-03T04:53:28.906Z,1.60
2022-10-03T04:56:12.759Z,1.73
2022-10-03T04:58:50.870Z,1.70
2022-10-03T05:01:26.569Z,1.70
2022-10-03T05:04:04.934Z,1.90
2022-10-03T05:06:48.514Z,2.70
2022-10-03T05:09:32.524Z,2.33
2022-10-03T05:12:14.881Z,1.77
2022-10-03T05:14:58.496Z,1.20
2022-10-03T05:17:39.359Z,1.57
2022-10-03T05:20:39.863Z,1.27
2022-10-03T05:23:23.726Z,2.00
2022-10-03T05:26:17.683Z,1.17
2022-10-03T05:29:03.695Z,1.87
2022-10-03T05:31:45.709Z,1.57
2022-10-03T05:34:24.989Z,1.73
2022-10-03T05:37:16.533Z,1.50
2022-10-03T05:39:57.302Z,1.43
2022-10-03T05:42:42.137Z,1.80
2022-10-03T05:45:28.692Z,1.50
2022-10-03T05:48:15.335Z,1.30
2022-10-03T05:51:13.334Z,1.60
2022-10-03T05:54:21.123Z,1.43
2022-10-03T05:57:18.934Z,1.70
2022-10-03T06:00:06.176Z,2.00
2022-10-03T06:03:06.828Z,1.77
2022-10-03T06:05:56.136Z,2.07
2022-10-03T06:09:05.076Z,1.83
2022-10-03T06:11:59.986Z,1.60
2022-10-03T06:14:35.836Z,1.60
2022-10-03T06:17:27.987Z,1.43
2022-10-03T06:20:11.737Z,1.80
2022-10-03T06:23:14.374Z,1.53
2022-10-03T06:26:28.838Z,1.67
2022-10-03T06:29:36.739Z,1.63
2022-10-03T06:32:28.197Z,1.60
2022-10-03T06:35:41.123Z,2.17
2022-10-03T06:38:37.414Z,2.60
2022-10-03T06:41:42.931Z,1.73
2022-10-03T06:44:42.028Z,1.60
2022-10-03T06:47:36.656Z,1.70
2022-10-03T06:50:39.829Z,1.93
2022-10-03T06:53:24.700Z,1.33
2022-10-03T06:56:31.823Z,1.60
2022-10-03T06:59:39.340Z,1.63
2022-10-03T07:02:35.444Z,2.47
2022-10-03T07:05:53.558Z,2.20
2022-10-03T07:08:53.305Z,1.50
2022-10-03T07:12:08.627Z,1.57
2022-10-03T07:15:08.582Z,1.93
2022-10-03T07:17:54.602Z,1.97
2022-10-03T07:20:56.953Z,2.83
2022-10-03T07:23:49.525Z,2.47
2022-10-03T07:26:58.198Z,1.77
2022-10-03T07:29:54.756Z,1.83
2022-10-03T07:32:58.312Z,1.90
2022-10-03T07:36:04.108Z,2.60
2022-10-03T07:39:00.978Z,1.63
2022-10-03T07:42:06.117Z,1.10
2022-10-03T07:45:22.981Z,1.70
2022-10-03T07:48:24.287Z,1.23
2022-10-03T07:51:08.797Z,1.70
2022-10-03T07:54:19.917Z,1.27
2022-10-03T07:57:13.830Z,2.23
2022-10-03T08:00:09.220Z,1.83
2022-10-03T08:03:14.417Z,1.60
2022-10-03T08:06:17.230Z,2.63
2022-10-03T08:09:12.652Z,1.70
2022-10-03T08:12:34.609Z,1.77
2022-10-03T08:15:11.030Z,1.67
2022-10-03T08:18:21.175Z,1.50
2022-10-03T08:20:55.213Z,1.60
2022-10-03T08:24:08.475Z,1.73
2022-10-03T08:27:04.372Z,1.73
2022-10-03T08:30:05.253Z,2.10
2022-10-03T08:33:01.260Z,1.23
2022-10-03T08:36:03.460Z,1.60
2022-10-03T08:39:01.417Z,1.70
2022-10-03T08:42:19.522Z,1.30
2022-10-03T08:45:25.593Z,1.40
2022-10-03T08:48:26.067Z,2.67
2022-10-03T08:51:06.160Z,1.33
2022-10-03T08:54:08.411Z,1.58
2022-10-03T08:56:58.198Z,1.48
2022-10-03T09:00:16.529Z,1.33
2022-10-03T09:03:39.294Z,1.50
2022-10-03T09:07:05.049Z,1.27
2022-10-03T09:10:17.332Z,1.42
2022-10-03T09:13:23.058Z,1.40
2022-10-03T09:16:27.761Z,3.28
2022-10-03T09:19:18.171Z,1.75
2022-10-03T09:22:23.175Z,2.30
2022-10-03T09:25:21.134Z,1.60
2022-10-03T09:28:35.253Z,1.75
2022-10-03T09:31:29.573Z,1.02
2022-10-03T09:34:29.839Z,1.23
2022-10-03T09:37:24.349Z,1.20
2022-10-03T09:40:53.654Z,1.13
2022-10-03T09:44:03.188Z,1.20
2022-10-03T09:47:08.187Z,1.60
2022-10-03T09:50:02.113Z,1.20
2022-10-03T09:52:48.630Z,1.77
2022-10-03T09:55:47.279Z,1.23
2022-10-03T09:58:46.241Z,1.25
2022-10-03T10:01:30.639Z,1.33
2022-10-03T10:04:52.991Z,1.48
2022-10-03T10:08:06.146Z,1.40
2022-10-03T10:11:12.171Z,1.15
2022-10-03T10:14:30.656Z,1.45
2022-10-03T10:17:40.544Z,1.40
2022-10-03T10:20:25.042Z,1.35
2022-10-03T10:23:20.579Z,1.05
2022-10-03T10:26:27.458Z,0.98
2022-10-03T10:29:19.244Z,1.08
2022-10-03T10:32:27.406Z,1.17
2022-10-03T10:35:47.563Z,1.20
2022-10-03T10:38:28.776Z,1.40
2022-10-03T10:41:50.642Z,1.50
2022-10-03T10:44:53.887Z,1.13
2022-10-03T10:48:16.844Z,1.27
2022-10-03T10:51:23.382Z,0.90
2022-10-03T10:54:27.004Z,1.23
2022-10-03T10:57:44.368Z,1.73
2022-10-03T11:00:34.900Z,0.80
2022-10-03T11:03:52.654Z,0.82
2022-10-03T11:07:12.557Z,1.08
2022-10-03T11:09:53.589Z,0.65
2022-10-03T11:13:04.518Z,1.23
2022-10-03T11:16:09.408Z,1.20
2022-10-03T11:19:21.218Z,1.33
2022-10-03T11:22:43.477Z,0.85
2022-10-03T11:25:44.285Z,0.55
2022-10-03T11:28:55.080Z,0.90
2022-10-03T11:32:08.172Z,1.52
2022-10-03T11:35:20.763Z,1.23
2022-10-03T11:37:56.621Z,0.65
2022-10-03T11:40:36.898Z,1.30
2022-10-03T11:43:48.778Z,0.95
2022-10-03T11:46:29.261Z,1.02
2022-10-03T11:49:02.794Z,0.90
2022-10-03T11:51:44.918Z,0.98
2022-10-03T11:54:31.681Z,0.90
2022-10-03T11:57:09.305Z,1.00
2022-10-03T11:59:52.953Z,0.98
2022-10-03T12:02:43.168Z,0.80
2022-10-03T12:05:23.299Z,0.70
2022-10-03T12:08:26.697Z,1.00
2022-10-03T12:11:06.952Z,0.63
2022-10-03T12:13:42.424Z,1.25
2022-10-03T12:16:20.891Z,1.00
2022-10-03T12:18:59.807Z,1.08
2022-10-03T12:21:43.529Z,0.95
2022-10-03T12:24:30.286Z,0.52
2022-10-03T12:27:06.165Z,1.27
2022-10-03T12:29:38.983Z,0.90
2022-10-03T12:32:26.912Z,1.48
2022-10-03T12:35:07.898Z,1.45
2022-10-03T12:37:52.726Z,0.93
2022-10-03T12:40:27.538Z,1.38
2022-10-03T12:43:16.304Z,1.40
2022-10-03T12:45:53.067Z,0.98
2022-10-03T12:48:40.069Z,1.17
2022-10-03T12:51:21.459Z,0.85
2022-10-03T12:54:02.253Z,0.95
2022-10-03T12:56:43.938Z,1.10
2022-10-03T12:59:25.071Z,1.10
2022-10-03T13:02:24.055Z,1.80
2022-10-03T13:05:18.149Z,1.27
2022-10-03T13:07:56.697Z,1.20
2022-10-03T13:10:37.245Z,1.30
2022-10-03T13:13:25.889Z,1.42
2022-10-03T13:16:21.857Z,1.25
2022-10-03T13:18:56.825Z,1.40
2022-10-03T13:21:55.975Z,1.15
2022-10-03T13:24:33.461Z,1.77
2022-10-03T13:27:12.364Z,1.33
2022-10-03T13:29:45.974Z,1.33
2022-10-03T13:32:19.549Z,1.20
2022-10-03T13:35:37.434Z,1.13
2022-10-03T13:38:18.503Z,1.15
2022-10-03T13:40:55.961Z,1.15
2022-10-03T13:43:37.558Z,1.27
2022-10-03T13:46:14.824Z,1.15
2022-10-03T13:48:52.464Z,1.17
2022-10-03T13:51:29.324Z,1.38
2022-10-03T13:54:03.805Z,1.45
2022-10-03T13:56:56.213Z,1.63
2022-10-03T13:59:37.424Z,1.10
2022-10-03T14:02:29.424Z,0.98
2022-10-03T14:05:20.087Z,1.00
2022-10-03T14:08:04.157Z,0.95
2022-10-03T14:10:59.220Z,1.23
2022-10-03T14:13:37.065Z,1.17
2022-10-03T14:16:15.029Z,1.25
2022-10-03T14:18:52.742Z,1.25
2022-10-03T14:21:34.968Z,0.75
2022-10-03T14:24:14.186Z,0.95
2022-10-03T14:26:50.779Z,1.17
2022-10-03T14:29:27.603Z,1.17
2022-10-03T14:32:02.257Z,0.88
2022-10-03T14:34:46.663Z,1.30
2022-10-03T14:37:25.566Z,1.55
2022-10-03T14:40:06.257Z,1.20
2022-10-03T14:43:10.778Z,1.33
2022-10-03T14:45:44.687Z,1.00
2022-10-03T14:48:19.221Z,1.05
2022-10-03T14:50:54.578Z,1.08
2022-10-03T14:53:27.203Z,1.20
2022-10-03T14:56:01.145Z,1.10
2022-10-03T14:58:35.466Z,1.42
2022-10-03T15:01:13.265Z,1.30
2022-10-03T15:03:46.523Z,2.03
2022-10-03T15:06:36.789Z,1.60
2022-10-03T15:09:11.690Z,2.30
2022-10-03T15:11:49.433Z,1.65
2022-10-03T15:14:19.806Z,1.10
2022-10-03T15:16:54.576Z,1.15
2022-10-03T15:19:29.268Z,1.98
2022-10-03T15:22:13.356Z,2.15
2022-10-03T15:24:43.255Z,1.45
2022-10-03T15:27:22.335Z,1.70
2022-10-03T15:29:54.584Z,1.83
2022-10-03T15:32:28.650Z,1.42
2022-10-03T15:35:01.917Z,1.52
2022-10-03T15:37:37.319Z,1.45
2022-10-03T15:40:12.390Z,1.20
2022-10-03T15:42:50.506Z,1.90
2022-10-03T15:45:28.811Z,1.48
2022-10-03T15:48:02.417Z,1.25
2022-10-03T15:50:35.526Z,1.55
2022-10-03T15:53:34.917Z,1.50
2022-10-03T15:56:11.655Z,1.70
2022-10-03T15:58:48.058Z,1.85
2022-10-03T16:01:22.625Z,1.55
2022-10-03T16:03:54.859Z,1.27
2022-10-03T16:06:28.592Z,1.60
2022-10-03T16:09:03.749Z,1.40
2022-10-03T16:11:41.430Z,1.23
2022-10-03T16:14:22.907Z,1.50
2022-10-03T16:16:56.679Z,1.63
2022-10-03T16:19:34.106Z,1.47
2022-10-03T16:22:17.732Z,1.90
2022-10-03T16:24:59.435Z,1.50
2022-10-03T16:27:31.506Z,2.00
2022-10-03T16:30:19.049Z,2.40
2022-10-03T16:32:57.084Z,1.60
2022-10-03T16:35:39.442Z,3.03
2022-10-03T16:38:18.498Z,2.27
2022-10-03T16:40:58.726Z,1.90
2022-10-03T16:43:31.072Z,2.10
2022-10-03T16:46:05.067Z,1.50
2022-10-03T16:48:54.008Z,1.87
2022-10-03T16:51:25.978Z,2.03
2022-10-03T16:53:57.029Z,1.40
2022-10-03T16:56:33.930Z,1.97
2022-10-03T16:59:07.730Z,1.70
2022-10-03T17:01:43.759Z,2.73
2022-10-03T17:04:23.579Z,1.80
2022-10-03T17:06:56.278Z,2.00
2022-10-03T17:09:34.660Z,1.83
2022-10-03T17:12:07.940Z,1.97
2022-10-03T17:14:41.859Z,1.83
2022-10-03T17:17:26.616Z,2.13
2022-10-03T17:20:00.931Z,1.70
2022-10-03T17:22:35.670Z,1.57
2022-10-03T17:25:08.857Z,1.83
2022-10-03T17:27:41.558Z,1.43
2022-10-03T17:30:21.685Z,1.97
2022-10-03T17:32:59.365Z,2.17
2022-10-03T17:35:38.876Z,1.87
2022-10-03T17:38:47.954Z,1.80
2022-10-03T17:41:18.620Z,2.17
2022-10-03T17:44:00.347Z,2.33
2022-10-03T17:46:40.114Z,2.23
2022-10-03T17:49:19.665Z,2.03
2022-10-03T17:51:53.214Z,1.87
2022-10-03T17:54:26.714Z,1.60
2022-10-03T17:57:01.238Z,1.83
2022-10-03T17:59:39.611Z,1.50
2022-10-03T18:02:21.602Z,1.20
2022-10-03T18:05:07.436Z,1.63
2022-10-03T18:07:38.239Z,2.03
2022-10-03T18:10:17.605Z,1.53
2022-10-03T18:12:53.673Z,2.03
2022-10-03T18:15:42.329Z,1.60
2022-10-03T18:18:45.482Z,1.90
2022-10-03T18:21:25.576Z,2.63
2022-10-03T18:24:16.306Z,3.07
2022-10-03T18:26:49.762Z,2.40
2022-10-03T18:29:27.471Z,2.00
2022-10-03T18:32:00.801Z,1.97
2022-10-03T18:34:36.005Z,2.57
2022-10-03T18:37:38.931Z,2.00
2022-10-03T18:40:18.405Z,1.83
2022-10-03T18:42:49.645Z,2.20
2022-10-03T18:45:23.084Z,2.17
2022-10-03T18:47:56.567Z,2.20
2022-10-03T18:50:30.487Z,2.40
2022-10-03T18:53:05.457Z,2.43
2022-10-03T18:55:42.056Z,2.83
2022-10-03T18:58:22.962Z,1.73
2022-10-03T19:00:57.418Z,1.80
2022-10-03T19:03:33.094Z,1.90
2022-10-03T19:06:08.115Z,1.83
2022-10-03T19:08:43.016Z,2.30
2022-10-03T19:11:22.811Z,1.97
2022-10-03T19:14:01.328Z,2.37
2022-10-03T19:16:59.966Z,1.47
2022-10-03T19:19:41.549Z,2.13
2022-10-03T19:22:16.995Z,2.00
2022-10-03T19:24:58.700Z,1.20
2022-10-03T19:27:42.998Z,2.30
2022-10-03T19:30:18.867Z,1.83
2022-10-03T19:32:55.846Z,1.90
2022-10-03T19:35:26.351Z,2.30
2022-10-03T19:38:01.598Z,2.70
2022-10-03T19:40:42.697Z,2.30
2022-10-03T19:43:35.449Z,2.10
2022-10-03T19:46:34.557Z,3.20
2022-10-03T19:49:22.177Z,4.07
2022-10-03T19:51:51.786Z,3.80
2022-10-03T19:54:34.841Z,2.60
2022-10-03T19:57:05.665Z,2.20
2022-10-03T19:59:46.143Z,2.57
2022-10-03T20:02:15.375Z,2.23
2022-10-03T20:04:50.130Z,2.13
2022-10-03T20:07:26.786Z,3.30
2022-10-03T20:09:58.600Z,2.40
2022-10-03T20:12:29.966Z,2.17
2022-10-03T20:15:05.702Z,2.50
2022-10-03T20:17:35.280Z,2.20
2022-10-03T20:20:08.654Z,1.90
2022-10-03T20:22:38.307Z,2.50
2022-10-03T20:25:21.469Z,2.23
2022-10-03T20:27:54.701Z,2.53
2022-10-03T20:30:33.276Z,2.50
2022-10-03T20:33:03.044Z,2.00
2022-10-03T20:35:47.875Z,1.97
2022-10-03T20:38:26.585Z,1.47
2022-10-03T20:41:01.582Z,1.63
2022-10-03T20:43:41.741Z,1.70
2022-10-03T20:46:24.147Z,1.87
2022-10-03T20:49:20.044Z,1.80
2022-10-03T20:51:59.280Z,2.07
2022-10-03T20:54:35.278Z,1.33
2022-10-03T20:57:13.754Z,1.87
2022-10-03T20:59:48.023Z,1.93
2022-10-03T21:02:35.958Z,2.40
2022-10-03T21:05:07.889Z,1.67
2022-10-03T21:07:42.101Z,1.57
2022-10-03T21:10:21.042Z,1.97
2022-10-03T21:12:53.037Z,1.93
2022-10-03T21:15:30.517Z,2.00
2022-10-03T21:18:02.336Z,2.30
2022-10-03T21:20:36.642Z,2.80
2022-10-03T21:23:15.103Z,2.70
2022-10-03T21:25:45.194Z,2.63
2022-10-03T21:28:24.916Z,2.33
2022-10-03T21:31:20.991Z,2.80
2022-10-03T21:34:00.975Z,2.67
2022-10-03T21:36:49.182Z,2.77
2022-10-03T21:39:27.242Z,2.30
2022-10-03T21:42:08.909Z,3.00
2022-10-03T21:44:56.011Z,2.70
2022-10-03T21:47:38.338Z,3.57
2022-10-03T21:50:15.776Z,4.07
2022-10-03T21:53:04.855Z,4.30
2022-10-03T21:55:54.937Z,4.27
2022-10-03T21:58:46.732Z,4.57
2022-10-03T22:01:24.908Z,4.57
2022-10-03T22:03:59.741Z,4.70
2022-10-03T22:06:36.512Z,4.67
2022-10-03T22:09:14.144Z,4.73
2022-10-03T22:11:50.002Z,3.70
2022-10-03T22:14:30.167Z,3.60
2022-10-03T22:17:07.991Z,3.50
2022-10-03T22:19:41.721Z,3.50
2022-10-03T22:22:27.649Z,3.70
2022-10-03T22:25:18.043Z,3.80
2022-10-03T22:27:53.906Z,3.57
2022-10-03T22:30:23.434Z,3.80
2022-10-03T22:33:04.709Z,3.27
2022-10-03T22:35:52.314Z,3.10
2022-10-03T22:38:27.579Z,3.13
2022-10-03T22:41:00.994Z,3.27
2022-10-03T22:43:30.784Z,3.33
2022-10-03T22:46:00.649Z,3.07
2022-10-03T22:48:35.220Z,3.00
2022-10-03T22:51:09.483Z,2.90
2022-10-03T22:53:45.433Z,3.23
2022-10-03T22:56:42.332Z,3.20
2022-10-03T22:59:17.302Z,3.10
2022-10-03T23:01:48.019Z,3.80
2022-10-03T23:04:28.527Z,3.00
2022-10-03T23:07:19.176Z,3.57
2022-10-03T23:09:59.961Z,2.93
2022-10-03T23:12:33.252Z,3.30
2022-10-03T23:15:07.818Z,3.30
2022-10-03T23:17:57.789Z,3.93
2022-10-03T23:20:47.082Z,3.10
2022-10-03T23:23:20.926Z,3.03
2022-10-03T23:26:01.978Z,3.00
2022-10-03T23:28:40.029Z,3.33
2022-10-03T23:31:29.868Z,3.93
2022-10-03T23:33:59.189Z,3.13
2022-10-03T23:36:32.051Z,3.27
2022-10-03T23:39:02.015Z,3.70
2022-10-03T23:41:45.431Z,3.40
2022-10-03T23:44:49.639Z,3.10
2022-10-03T23:47:24.317Z,3.33
2022-10-03T23:49:54.543Z,3.33
2022-10-03T23:52:28.417Z,3.07
2022-10-03T23:55:03.052Z,3.07
2022-10-03T23:57:36.777Z,3.23
